Oakland, California
Current Conditions -  °F | °C
As of 12:53 PM on Friday 31 Oct 2014 (Local Time) from KOAK Reporting Station
Moderate Rain Moderate Rain  
Wind Chill: 14°   Ceiling: 4000
Heat Index: 14°   Visibility: 2.5mi
Dew Point: 13°   Wind: 6mph
Humidity: 93%   Direction: 320°NW
Pressure: 29.86"   Gusts: NA
Location:  37.81°N, 122.27°W
Report Text: KOAK 311953Z 32005KT 2 1/2SM RA BR SCT011 OVC040 14/13 A2986 RMK AO2 RAE26B48 SLP111 P0003 T01440133
Loading
Personal Weather Stations






























Interactive Weather Map
Tropical Storm Tracking
New forecast layout! Learn more

10-Day Weather Forecast

Advertisements
Track Severe Weather on mobile